createdAt,value
2022-12-12T00:00:51.152Z,1.95
2022-12-12T00:03:24.834Z,1.93
2022-12-12T00:05:58.079Z,1.96
2022-12-12T00:08:31.452Z,1.93
2022-12-12T00:11:06.803Z,1.90
2022-12-12T00:13:39.958Z,2.00
2022-12-12T00:16:13.743Z,1.96
2022-12-12T00:18:47.137Z,1.92
2022-12-12T00:21:22.669Z,1.95
2022-12-12T00:23:58.090Z,1.92
2022-12-12T00:26:33.788Z,1.94
2022-12-12T00:29:07.391Z,2.02
2022-12-12T00:31:40.866Z,2.11
2022-12-12T00:34:15.317Z,2.06
2022-12-12T00:36:48.546Z,2.01
2022-12-12T00:39:23.181Z,2.13
2022-12-12T00:41:56.345Z,2.06
2022-12-12T00:44:29.518Z,2.06
2022-12-12T00:47:03.000Z,2.11
2022-12-12T00:49:36.364Z,2.07
2022-12-12T00:52:09.532Z,2.18
2022-12-12T00:54:42.489Z,2.13
2022-12-12T00:57:15.664Z,2.20
2022-12-12T00:59:48.844Z,2.21
2022-12-12T01:02:27.858Z,2.19
2022-12-12T01:04:56.916Z,2.22
2022-12-12T01:07:30.164Z,2.22
2022-12-12T01:10:02.969Z,2.27
2022-12-12T01:12:36.382Z,2.28
2022-12-12T01:15:13.168Z,2.28
2022-12-12T01:17:46.315Z,2.30
2022-12-12T01:20:22.420Z,2.30
2022-12-12T01:22:56.800Z,2.33
2022-12-12T01:25:29.877Z,2.34
2022-12-12T01:28:03.515Z,2.40
2022-12-12T01:30:36.895Z,2.46
2022-12-12T01:33:10.145Z,2.44
2022-12-12T01:35:43.356Z,2.41
2022-12-12T01:38:16.504Z,2.43
2022-12-12T01:40:49.790Z,2.42
2022-12-12T01:43:24.293Z,2.40
2022-12-12T01:46:49.681Z,2.41
2022-12-12T01:49:27.528Z,2.44
2022-12-12T01:52:03.586Z,2.45
2022-12-12T01:54:39.495Z,2.44
2022-12-12T01:57:15.792Z,2.40
2022-12-12T01:59:49.480Z,2.38
2022-12-12T02:02:22.938Z,2.42
2022-12-12T02:04:56.285Z,2.40
2022-12-12T02:07:29.382Z,2.43
2022-12-12T02:10:02.408Z,2.40
2022-12-12T02:12:42.536Z,2.45
2022-12-12T02:15:16.060Z,2.44
2022-12-12T02:18:03.790Z,2.44
2022-12-12T02:21:01.421Z,2.41
2022-12-12T02:24:29.931Z,2.40
2022-12-12T02:27:51.545Z,2.38
2022-12-12T02:30:26.392Z,2.36
2022-12-12T02:33:13.143Z,2.33
2022-12-12T02:35:53.009Z,2.39
2022-12-12T02:38:29.446Z,2.39
2022-12-12T02:41:09.901Z,2.37
2022-12-12T02:43:45.599Z,2.38
2022-12-12T02:46:21.748Z,2.41
2022-12-12T02:48:58.084Z,2.41
2022-12-12T02:51:33.471Z,2.38
2022-12-12T02:54:09.031Z,2.44
2022-12-12T02:56:51.562Z,2.39
2022-12-12T02:59:27.837Z,2.42
2022-12-12T03:02:59.011Z,2.43
2022-12-12T03:05:58.699Z,2.48
2022-12-12T03:08:43.188Z,2.45
2022-12-12T03:11:19.319Z,2.42
2022-12-12T03:13:56.084Z,2.40
2022-12-12T03:16:32.821Z,2.41
2022-12-12T03:19:09.210Z,2.43
2022-12-12T03:21:45.163Z,2.46
2022-12-12T03:24:22.551Z,2.48
2022-12-12T03:26:58.734Z,2.48
2022-12-12T03:29:34.587Z,2.47
2022-12-12T03:32:10.637Z,2.49
2022-12-12T03:34:46.742Z,2.49
2022-12-12T03:37:23.855Z,2.54
2022-12-12T03:39:59.649Z,2.54
2022-12-12T03:42:36.923Z,2.54
2022-12-12T03:45:14.840Z,2.51
2022-12-12T03:47:52.754Z,2.48
2022-12-12T03:50:28.917Z,2.52
2022-12-12T03:53:04.928Z,2.56
2022-12-12T03:55:42.065Z,2.56
2022-12-12T03:58:18.006Z,2.55
2022-12-12T04:00:53.019Z,2.55
2022-12-12T04:03:29.719Z,2.55
2022-12-12T04:06:56.241Z,2.57
2022-12-12T04:10:00.225Z,2.62
2022-12-12T04:12:56.106Z,2.55
2022-12-12T04:15:59.675Z,2.55
2022-12-12T04:18:43.914Z,2.55
2022-12-12T04:21:42.890Z,2.54
2022-12-12T04:24:22.152Z,2.56
2022-12-12T04:26:59.033Z,2.54
2022-12-12T04:29:41.465Z,2.59
2022-12-12T04:32:18.830Z,2.58
2022-12-12T04:34:54.856Z,2.60
2022-12-12T04:37:30.634Z,2.60
2022-12-12T04:40:06.073Z,2.59
2022-12-12T04:42:42.116Z,2.60
2022-12-12T04:45:18.385Z,2.61
2022-12-12T04:47:54.852Z,2.65
2022-12-12T04:50:30.809Z,2.64
2022-12-12T04:53:06.144Z,2.60
2022-12-12T04:55:43.842Z,2.63
2022-12-12T04:58:17.578Z,2.62
2022-12-12T05:00:54.089Z,2.60
2022-12-12T05:03:30.369Z,2.62
2022-12-12T05:06:06.724Z,2.63
2022-12-12T05:08:42.850Z,2.70
2022-12-12T05:11:18.598Z,2.66
2022-12-12T05:13:52.297Z,2.67
2022-12-12T05:16:28.363Z,2.73
2022-12-12T05:19:01.876Z,2.75
2022-12-12T05:21:35.039Z,2.72
2022-12-12T05:24:09.219Z,2.75
2022-12-12T05:26:42.467Z,2.80
2022-12-12T05:29:15.635Z,2.74
2022-12-12T05:31:48.573Z,2.76
2022-12-12T05:34:21.798Z,2.76
2022-12-12T05:36:55.458Z,2.78
2022-12-12T05:39:28.664Z,2.74
2022-12-12T05:42:01.725Z,2.81
2022-12-12T05:44:34.728Z,2.80
2022-12-12T05:47:08.093Z,2.78
2022-12-12T05:49:41.092Z,2.78
2022-12-12T05:52:14.539Z,2.82
2022-12-12T05:54:47.746Z,2.83
2022-12-12T05:57:21.215Z,2.81
2022-12-12T05:59:54.133Z,2.81
2022-12-12T06:02:27.407Z,2.81
2022-12-12T06:05:00.468Z,2.89
2022-12-12T06:07:34.389Z,2.84
2022-12-12T06:10:09.592Z,2.84
2022-12-12T06:12:43.884Z,2.85
2022-12-12T06:15:17.567Z,2.84
2022-12-12T06:17:52.159Z,2.77
2022-12-12T06:20:25.757Z,2.79
2022-12-12T06:22:58.948Z,2.78
2022-12-12T06:25:32.427Z,2.78
2022-12-12T06:28:05.710Z,2.77
2022-12-12T06:30:39.510Z,2.76
2022-12-12T06:33:12.683Z,2.80
2022-12-12T06:35:46.697Z,2.79
2022-12-12T06:38:20.632Z,2.78
2022-12-12T06:40:54.235Z,2.80
2022-12-12T06:43:27.571Z,2.79
2022-12-12T06:46:04.308Z,2.80
2022-12-12T06:48:37.997Z,2.82
2022-12-12T06:51:13.083Z,2.79
2022-12-12T06:53:46.402Z,2.78
2022-12-12T06:56:21.345Z,2.75
2022-12-12T06:58:55.256Z,2.78
2022-12-12T07:01:28.715Z,2.76
2022-12-12T07:04:02.075Z,2.73
2022-12-12T07:06:35.438Z,2.76
2022-12-12T07:09:09.279Z,2.75
2022-12-12T07:11:42.629Z,2.74
2022-12-12T07:14:15.717Z,2.75
2022-12-12T07:16:49.071Z,2.74
2022-12-12T07:19:23.516Z,2.79
2022-12-12T07:21:56.708Z,2.76
2022-12-12T07:24:29.862Z,2.77
2022-12-12T07:27:02.685Z,2.76
2022-12-12T07:29:36.204Z,2.73
2022-12-12T07:32:09.352Z,2.76
2022-12-12T07:34:42.572Z,2.73
2022-12-12T07:37:15.728Z,2.73
2022-12-12T07:39:48.893Z,2.72
2022-12-12T07:42:21.982Z,2.72
2022-12-12T07:44:55.247Z,2.70
2022-12-12T07:47:28.540Z,2.73
2022-12-12T07:50:01.257Z,2.73
2022-12-12T07:52:34.465Z,2.73
2022-12-12T07:55:09.247Z,2.72
2022-12-12T07:57:42.741Z,2.77
2022-12-12T08:00:18.236Z,2.83
2022-12-12T08:02:51.823Z,2.78
2022-12-12T08:05:25.729Z,2.79
2022-12-12T08:07:59.003Z,2.77
2022-12-12T08:10:32.259Z,2.79
2022-12-12T08:13:05.081Z,2.74
2022-12-12T08:15:38.476Z,2.81
2022-12-12T08:18:11.614Z,2.75
2022-12-12T08:20:44.946Z,2.78
2022-12-12T08:23:18.121Z,2.80
2022-12-12T08:25:51.293Z,2.78
2022-12-12T08:28:24.396Z,2.78
2022-12-12T08:30:57.579Z,2.84
2022-12-12T08:33:31.539Z,2.81
2022-12-12T08:36:13.372Z,2.87
2022-12-12T08:38:46.797Z,2.81
2022-12-12T08:41:20.594Z,2.86
2022-12-12T08:43:54.344Z,2.86
2022-12-12T08:46:27.524Z,2.84
2022-12-12T08:49:00.916Z,2.85
2022-12-12T08:51:34.494Z,2.87
2022-12-12T08:54:08.605Z,2.88
2022-12-12T08:56:42.179Z,2.88
2022-12-12T08:59:15.455Z,2.97
2022-12-12T09:01:48.694Z,2.87
2022-12-12T09:04:23.543Z,2.90
2022-12-12T09:06:57.477Z,2.87
2022-12-12T09:09:31.210Z,2.86
2022-12-12T09:12:04.758Z,2.85
2022-12-12T09:14:38.214Z,2.83
2022-12-12T09:17:11.226Z,2.89
2022-12-12T09:19:45.876Z,2.83
2022-12-12T09:22:18.955Z,2.84
2022-12-12T09:24:52.128Z,2.83
2022-12-12T09:27:25.508Z,2.91
2022-12-12T09:29:59.379Z,2.86
2022-12-12T09:32:34.396Z,2.88
2022-12-12T09:35:08.827Z,2.91
2022-12-12T09:37:41.987Z,2.95
2022-12-12T09:40:19.224Z,2.96
2022-12-12T09:42:54.423Z,2.96
2022-12-12T09:45:41.162Z,2.94
2022-12-12T09:48:17.070Z,2.93
2022-12-12T09:50:51.215Z,2.90
2022-12-12T09:53:27.068Z,2.92
2022-12-12T09:56:04.302Z,2.90
2022-12-12T09:58:45.086Z,2.85
2022-12-12T10:01:18.250Z,2.87
2022-12-12T10:03:58.083Z,2.86
2022-12-12T10:06:37.815Z,2.85
2022-12-12T10:09:17.360Z,2.88
2022-12-12T10:11:55.022Z,2.93
2022-12-12T10:14:34.552Z,2.87
2022-12-12T10:17:10.466Z,2.88
2022-12-12T10:19:49.403Z,2.90
2022-12-12T10:22:27.508Z,2.92
2022-12-12T10:25:05.720Z,2.87
2022-12-12T10:27:59.624Z,2.90
2022-12-12T10:30:35.370Z,2.88
2022-12-12T10:33:15.679Z,2.92
2022-12-12T10:35:52.575Z,2.90
2022-12-12T10:38:35.530Z,2.85
2022-12-12T10:41:11.508Z,2.95
2022-12-12T10:43:47.723Z,2.83
2022-12-12T10:46:26.474Z,2.84
2022-12-12T10:49:00.078Z,2.86
2022-12-12T10:51:33.449Z,2.87
2022-12-12T10:54:13.389Z,2.87
2022-12-12T10:57:19.822Z,2.91
2022-12-12T10:59:51.310Z,2.96
2022-12-12T11:02:32.873Z,2.91
2022-12-12T11:05:14.341Z,2.90
2022-12-12T11:07:53.646Z,2.93
2022-12-12T11:10:33.998Z,2.92
2022-12-12T11:13:22.527Z,2.92
2022-12-12T11:15:59.896Z,2.92
2022-12-12T11:18:33.268Z,2.90
2022-12-12T11:21:09.869Z,2.89
2022-12-12T11:23:45.957Z,2.91
2022-12-12T11:26:21.657Z,2.90
2022-12-12T11:28:58.093Z,2.92
2022-12-12T11:31:34.747Z,2.97
2022-12-12T11:34:09.180Z,2.97
2022-12-12T11:36:43.993Z,3.02
2022-12-12T11:39:21.135Z,3.01
2022-12-12T11:42:06.302Z,2.95
2022-12-12T11:44:40.348Z,2.92
2022-12-12T11:50:22.922Z,3.01
2022-12-12T11:52:58.635Z,2.91
2022-12-12T11:55:36.879Z,2.81
2022-12-12T11:58:17.090Z,2.85
2022-12-12T12:00:54.327Z,2.79
2022-12-12T12:03:40.679Z,2.77
2022-12-12T12:06:25.118Z,2.77
2022-12-12T12:09:09.763Z,2.79
2022-12-12T12:11:46.027Z,2.87
2022-12-12T12:14:28.733Z,2.77
2022-12-12T12:17:05.066Z,2.77
2022-12-12T12:19:45.645Z,2.83
2022-12-12T12:22:24.159Z,2.84
2022-12-12T12:25:09.184Z,2.80
2022-12-12T12:27:47.447Z,2.84
2022-12-12T12:30:24.089Z,2.84
2022-12-12T12:33:12.763Z,2.87
2022-12-12T12:35:51.795Z,2.91
2022-12-12T12:38:29.321Z,2.91
2022-12-12T12:41:13.734Z,2.89
2022-12-12T12:43:58.649Z,2.91
2022-12-12T12:46:38.232Z,2.86
2022-12-12T12:49:16.728Z,2.85
2022-12-12T12:51:53.688Z,2.90
2022-12-12T12:54:28.909Z,2.91
2022-12-12T12:57:05.670Z,2.85
2022-12-12T12:59:41.936Z,2.96
2022-12-12T13:02:26.574Z,2.88
2022-12-12T13:05:00.367Z,2.93
2022-12-12T13:07:40.885Z,2.90
2022-12-12T13:10:19.028Z,2.85
2022-12-12T13:12:56.084Z,2.88
2022-12-12T13:15:32.789Z,2.88
2022-12-12T13:18:09.331Z,2.92
2022-12-12T13:20:45.767Z,2.89
2022-12-12T13:23:26.185Z,2.86
2022-12-12T13:26:02.976Z,2.91
2022-12-12T13:28:38.646Z,2.92
2022-12-12T13:31:39.329Z,2.88
2022-12-12T13:34:15.422Z,2.87
2022-12-12T13:36:51.079Z,2.91
2022-12-12T13:39:30.325Z,2.89
2022-12-12T13:42:05.853Z,2.90
2022-12-12T13:44:42.254Z,2.88
2022-12-12T13:47:35.901Z,2.89
2022-12-12T13:50:17.211Z,2.87
2022-12-12T13:53:10.871Z,2.88
2022-12-12T13:55:46.323Z,2.90
2022-12-12T13:58:38.071Z,2.84
2022-12-12T14:01:37.467Z,2.82
2022-12-12T14:04:27.121Z,2.81
2022-12-12T14:07:05.372Z,2.80
2022-12-12T14:09:48.123Z,2.86
2022-12-12T14:12:27.499Z,2.74
2022-12-12T14:14:59.444Z,2.62
2022-12-12T14:17:42.340Z,2.57
2022-12-12T14:20:24.868Z,2.46
2022-12-12T14:23:31.196Z,2.44
2022-12-12T14:26:06.029Z,2.37
2022-12-12T14:28:39.174Z,2.32
2022-12-12T14:31:17.213Z,2.31
2022-12-12T14:34:14.099Z,2.29
2022-12-12T14:37:15.561Z,2.28
2022-12-12T14:39:58.476Z,2.29
2022-12-12T14:43:18.999Z,2.18
2022-12-12T14:45:38.522Z,2.22
2022-12-12T14:48:11.245Z,2.16
2022-12-12T14:50:51.025Z,2.24
2022-12-12T14:53:25.998Z,2.16
2022-12-12T14:56:02.566Z,2.16
2022-12-12T14:58:38.802Z,2.17
2022-12-12T15:01:12.955Z,2.13
2022-12-12T15:03:48.939Z,2.14
2022-12-12T15:06:28.932Z,2.15
2022-12-12T15:09:11.529Z,2.17
2022-12-12T15:11:45.315Z,2.15
2022-12-12T15:14:22.435Z,2.14
2022-12-12T15:17:00.103Z,2.17
2022-12-12T15:19:36.362Z,2.18
2022-12-12T15:22:15.027Z,2.15
2022-12-12T15:24:48.721Z,2.15
2022-12-12T15:27:25.123Z,2.15
2022-12-12T15:29:59.056Z,2.17
2022-12-12T15:32:34.373Z,2.17
2022-12-12T15:35:16.790Z,2.18
2022-12-12T15:37:58.015Z,2.16
2022-12-12T15:40:32.374Z,2.16
2022-12-12T15:43:08.676Z,2.05
2022-12-12T15:45:44.783Z,2.13
2022-12-12T15:48:19.609Z,2.16
2022-12-12T15:50:58.102Z,2.12
2022-12-12T15:53:33.284Z,2.10
2022-12-12T15:56:09.191Z,2.13
2022-12-12T15:58:45.382Z,2.11
2022-12-12T16:01:22.529Z,2.08
2022-12-12T16:04:01.120Z,2.09
2022-12-12T16:06:38.164Z,2.09
2022-12-12T16:09:18.799Z,2.09
2022-12-12T16:11:54.971Z,2.09
2022-12-12T16:14:40.585Z,2.07
2022-12-12T16:17:14.355Z,2.13
2022-12-12T16:19:50.855Z,2.06
2022-12-12T16:22:39.677Z,2.12
2022-12-12T16:25:21.390Z,2.07
2022-12-12T16:27:58.019Z,2.00
2022-12-12T16:30:31.676Z,2.03
2022-12-12T16:33:15.609Z,2.02
2022-12-12T16:35:48.684Z,2.06
2022-12-12T16:38:29.047Z,2.11
2022-12-12T16:41:04.756Z,2.07
2022-12-12T16:43:39.629Z,2.07
2022-12-12T16:46:22.315Z,2.04
2022-12-12T16:48:59.804Z,2.12
2022-12-12T16:51:36.013Z,2.06
2022-12-12T16:54:17.310Z,2.13
2022-12-12T16:56:52.786Z,2.09
2022-12-12T16:59:25.904Z,2.07
2022-12-12T17:02:02.797Z,2.09
2022-12-12T17:04:43.158Z,2.10
2022-12-12T17:07:22.755Z,2.11
2022-12-12T17:10:06.364Z,2.10
2022-12-12T17:12:40.625Z,2.16
2022-12-12T17:15:17.664Z,2.08
2022-12-12T17:17:51.083Z,2.08
2022-12-12T17:20:24.524Z,2.09
2022-12-12T17:22:58.020Z,2.08
2022-12-12T17:25:32.345Z,2.07
2022-12-12T17:28:07.387Z,1.99
2022-12-12T17:30:42.550Z,2.06
2022-12-12T17:33:18.947Z,2.02
2022-12-12T17:36:01.311Z,2.04
2022-12-12T17:38:34.814Z,2.00
2022-12-12T17:41:09.209Z,1.97
2022-12-12T17:43:42.368Z,2.01
2022-12-12T17:46:19.507Z,2.00
2022-12-12T17:48:57.452Z,1.97
2022-12-12T17:51:33.001Z,1.99
2022-12-12T17:54:07.186Z,1.99
2022-12-12T17:56:41.709Z,1.94
2022-12-12T17:59:17.240Z,1.94
2022-12-12T18:01:52.400Z,1.94
2022-12-12T18:04:28.565Z,1.96
2022-12-12T18:07:01.688Z,1.91
2022-12-12T18:09:35.749Z,1.95
2022-12-12T18:12:09.984Z,2.04
2022-12-12T18:14:49.649Z,1.91
2022-12-12T18:17:24.995Z,1.94
2022-12-12T18:19:58.772Z,1.90
2022-12-12T18:22:33.937Z,1.92
2022-12-12T18:25:10.591Z,1.90
2022-12-12T18:27:46.114Z,1.85
2022-12-12T18:30:22.146Z,1.81
2022-12-12T18:33:02.757Z,1.83
2022-12-12T18:36:06.632Z,1.82
2022-12-12T18:38:58.428Z,1.85
2022-12-12T18:41:33.078Z,1.70
2022-12-12T18:44:08.357Z,1.74
2022-12-12T18:46:43.435Z,1.67
2022-12-12T18:49:18.420Z,1.70
2022-12-12T18:51:51.690Z,1.73
2022-12-12T18:54:24.724Z,1.77
2022-12-12T18:56:57.949Z,1.74
2022-12-12T18:59:32.086Z,1.72
2022-12-12T19:02:08.898Z,1.73
2022-12-12T19:04:44.299Z,1.66
